Avisos AEMET Campiña SevillanaSin Avisos    + INFO

Informes METAR cercanos

 

LEZL - Sevilla (civ/Mil, Spain
Distancia de la estación: O 16km
Actualización: 25/01/2022 23:00
Despejado
Despejado
 Viento del NNE
Viento: NNE 6 km/h
Temperatura: 11°C
Rocío: 7°C
Humedad: 77%
Barómetro: 1026 hPa
Resumen: Despejado
Visibilidad: más de 10 km
2022/01/25 22:00 LEZL 252200Z 03003KT CAVOK 11/07 Q1026 NOSIG
LEMO - Moron (sp-Usafb), Spain
Distancia de la estación: SSE 27km
Actualización: 25/01/2022 23:00
Poco Nuboso
Poco Nuboso
 Viento del E
Viento: E 11 km/h
Temperatura: 11°C
Rocío: 6°C
Humedad: 72%
Barómetro: 1025 hPa
Nubes: Poco Nuboso
Visibilidad: 10 km
Detalles nubes: Poco Nuboso 1829 m
2022/01/25 22:00 LEMO 252200Z 09006KT 9999 FEW060 11/06 Q1025 NOSIG